Time;durP1;ratioP1;P1;durP2;ratioP2;P2;SDS_P1;SDS_P2;PMS_P1;PMS_P2;Temp;Humidity;BMP_temperature;BMP_pressure;BME280_temperature;BME280_humidity;BME280_pressure;Samples;Min_cycle;Max_cycle;Signal;HPM_P1;HPM_P2
2021/10/05 00:00:22;;;;;;;0.40;0.40;;;22.80;69.60;;;;;;5125568;28;20113;-36
2021/10/05 00:02:48;;;;;;;0.47;0.38;;;22.80;69.80;;;;;;5138788;27;20034;-36
2021/10/05 00:05:15;;;;;;;0.40;0.40;;;22.80;69.90;;;;;;5145933;27;20761;-36
2021/10/05 00:07:41;;;;;;;0.50;0.50;;;22.80;69.90;;;;;;5145506;27;20818;-36
2021/10/05 00:10:08;;;;;;;0.60;0.50;;;22.80;70.00;;;;;;5145692;27;20027;-36
2021/10/05 00:12:34;;;;;;;0.57;0.55;;;22.80;70.10;;;;;;5145833;27;20055;-37
2021/10/05 00:15:01;;;;;;;0.40;0.40;;;22.80;70.20;;;;;;5145854;27;20023;-36
2021/10/05 00:17:27;;;;;;;0.50;0.50;;;22.80;70.40;;;;;;5145270;27;20031;-36
2021/10/05 00:19:53;;;;;;;1.75;0.50;;;22.80;70.50;;;;;;5137368;27;20020;-36
2021/10/05 00:22:19;;;;;;;1.30;0.50;;;22.80;70.50;;;;;;5125077;28;20873;-36
2021/10/05 00:24:45;;;;;;;0.30;0.30;;;22.80;70.70;;;;;;5110146;28;20035;-36
2021/10/05 00:27:11;;;;;;;0.47;0.47;;;22.80;70.70;;;;;;5124215;28;20036;-36
2021/10/05 00:29:38;;;;;;;1.15;0.50;;;22.80;70.70;;;;;;5124771;28;20031;-36
2021/10/05 00:32:04;;;;;;;0.40;0.40;;;22.80;70.70;;;;;;5106369;28;20019;-36
2021/10/05 00:34:31;;;;;;;0.50;0.50;;;22.80;70.70;;;;;;5124979;28;20023;-36
2021/10/05 00:36:57;;;;;;;0.50;0.50;;;22.80;70.70;;;;;;5124907;28;20040;-36
2021/10/05 00:39:25;;;;;;;0.60;0.50;;;22.80;70.60;;;;;;5124314;28;20530;-36
2021/10/05 00:41:52;;;;;;;1.05;0.45;;;22.80;70.60;;;;;;5123689;28;20027;-40
2021/10/05 00:44:32;;;;;;;0.50;0.50;;;22.80;70.60;;;;;;5124635;28;20091;-36
2021/10/05 00:47:08;;;;;;;0.40;0.40;;;22.80;70.60;;;;;;5124363;28;20028;-36
2021/10/05 00:49:35;;;;;;;0.45;0.45;;;22.80;70.60;;;;;;5118733;28;20084;-36
2021/10/05 00:52:01;;;;;;;0.45;0.40;;;22.80;70.60;;;;;;5104077;28;20817;-36
2021/10/05 00:54:37;;;;;;;0.47;0.47;;;22.80;70.70;;;;;;5103670;28;20088;-36
2021/10/05 00:57:04;;;;;;;0.73;0.43;;;22.80;70.70;;;;;;5103900;28;20020;-37
2021/10/05 00:59:31;;;;;;;1.45;0.40;;;22.80;70.70;;;;;;5103497;28;20043;-36
2021/10/05 01:01:58;;;;;;;0.40;0.40;;;22.80;70.70;;;;;;5116287;27;20038;-36
2021/10/05 01:04:24;;;;;;;0.73;0.60;;;22.80;70.80;;;;;;5144872;27;20027;-36
2021/10/05 01:07:05;;;;;;;0.75;0.40;;;22.80;70.80;;;;;;5144653;27;20023;-36
2021/10/05 01:09:31;;;;;;;1.17;0.50;;;22.80;70.90;;;;;;5144190;27;20035;-36
2021/10/05 01:11:57;;;;;;;0.52;0.50;;;22.80;70.80;;;;;;5113980;28;20062;-36
2021/10/05 01:14:24;;;;;;;0.50;0.50;;;22.80;70.80;;;;;;5123880;28;20039;-36
2021/10/05 01:16:51;;;;;;;0.40;0.40;;;22.80;70.80;;;;;;5123864;28;20027;-36
2021/10/05 01:19:17;;;;;;;0.65;0.50;;;22.80;70.80;;;;;;5123555;28;20032;-36
2021/10/05 01:21:44;;;;;;;0.40;0.40;;;22.80;70.80;;;;;;5123911;28;20032;-36
2021/10/05 01:24:11;;;;;;;0.40;0.40;;;22.80;70.90;;;;;;5123739;28;20016;-36
2021/10/05 01:26:38;;;;;;;0.50;0.50;;;22.80;70.80;;;;;;5123787;28;20385;-36
2021/10/05 01:29:04;;;;;;;0.60;0.52;;;22.80;70.90;;;;;;5123486;28;20043;-36
2021/10/05 01:31:31;;;;;;;0.75;0.70;;;22.80;71.00;;;;;;5126237;27;20019;-36
2021/10/05 01:33:58;;;;;;;0.93;0.60;;;22.80;70.90;;;;;;5144250;27;20054;-36
2021/10/05 01:36:24;;;;;;;0.55;0.40;;;22.80;71.00;;;;;;5125428;27;20030;-36
2021/10/05 01:38:50;;;;;;;1.75;0.40;;;22.80;71.10;;;;;;5143818;27;20031;-36
2021/10/05 01:41:16;;;;;;;0.50;0.50;;;22.80;71.10;;;;;;5144149;27;20036;-36
2021/10/05 01:43:43;;;;;;;0.63;0.50;;;22.80;71.10;;;;;;5144201;27;20083;-36
2021/10/05 01:46:13;;;;;;;0.43;0.43;;;22.80;71.10;;;;;;5144103;27;20023;-36
2021/10/05 01:48:40;;;;;;;1.08;0.40;;;22.80;71.10;;;;;;5143451;27;20038;-36
2021/10/05 01:51:06;;;;;;;0.73;0.40;;;22.80;71.00;;;;;;5119055;27;20024;-36
2021/10/05 01:53:32;;;;;;;0.73;0.50;;;22.80;71.00;;;;;;5102113;28;20630;-36
2021/10/05 01:55:58;;;;;;;0.85;0.40;;;22.80;71.10;;;;;;5102735;28;20043;-36
2021/10/05 01:58:24;;;;;;;0.70;0.57;;;22.80;71.20;;;;;;5102882;28;20027;-36
2021/10/05 02:00:51;;;;;;;0.60;0.60;;;22.80;71.30;;;;;;5102892;28;20050;-36
2021/10/05 02:03:19;;;;;;;0.50;0.50;;;22.80;71.40;;;;;;5102782;28;20066;-36
2021/10/05 02:05:45;;;;;;;0.55;0.50;;;22.80;71.50;;;;;;5102628;28;20035;-37
2021/10/05 02:08:11;;;;;;;0.82;0.70;;;22.80;71.40;;;;;;5102797;28;20039;-36
2021/10/05 02:10:38;;;;;;;1.63;0.70;;;22.80;71.40;;;;;;5102640;28;20028;-36
2021/10/05 02:13:05;;;;;;;0.70;0.60;;;22.80;71.40;;;;;;5102753;28;20024;-36
2021/10/05 02:15:31;;;;;;;0.63;0.60;;;22.80;71.40;;;;;;5084820;28;20047;-36
2021/10/05 02:17:58;;;;;;;1.17;0.50;;;22.80;71.30;;;;;;5102622;28;20040;-36
2021/10/05 02:20:24;;;;;;;0.50;0.50;;;22.80;71.40;;;;;;5115253;28;20020;-36
2021/10/05 02:22:51;;;;;;;0.50;0.40;;;22.80;72.10;;;;;;5143344;28;20079;-37
2021/10/05 02:25:17;;;;;;;1.15;0.60;;;22.80;71.30;;;;;;5143572;28;20058;-36
2021/10/05 02:27:43;;;;;;;0.50;0.50;;;22.80;71.20;;;;;;5143614;28;20031;-36
2021/10/05 02:30:10;;;;;;;1.63;0.60;;;22.80;71.10;;;;;;5133477;28;20020;-36
2021/10/05 02:32:36;;;;;;;0.40;0.40;;;22.80;71.10;;;;;;5118080;28;20046;-36
2021/10/05 02:35:03;;;;;;;0.85;0.68;;;22.80;71.20;;;;;;5122795;28;20032;-36
2021/10/05 02:37:31;;;;;;;1.15;0.50;;;22.80;71.30;;;;;;5104435;28;20027;-36
2021/10/05 02:39:58;;;;;;;0.60;0.50;;;22.80;71.30;;;;;;5122613;28;20032;-36
2021/10/05 02:42:24;;;;;;;0.75;0.73;;;22.80;71.40;;;;;;5121929;28;20087;-36
2021/10/05 02:44:51;;;;;;;0.77;0.50;;;22.70;71.30;;;;;;5122921;28;20028;-36
2021/10/05 02:47:17;;;;;;;0.70;0.70;;;22.70;71.40;;;;;;5105520;28;20091;-36
2021/10/05 02:49:43;;;;;;;0.55;0.52;;;22.70;71.40;;;;;;5122524;28;20100;-36
2021/10/05 02:52:20;;;;;;;1.00;0.77;;;22.70;72.20;;;;;;5137414;28;20027;-36
2021/10/05 02:54:47;;;;;;;0.60;0.60;;;22.70;71.40;;;;;;5143269;28;20103;-36
2021/10/05 02:57:14;;;;;;;0.40;0.40;;;22.70;71.30;;;;;;5143501;28;20027;-36
2021/10/05 02:59:40;;;;;;;0.70;0.70;;;22.70;71.40;;;;;;5136682;28;20024;-36
2021/10/05 03:02:06;;;;;;;0.67;0.67;;;22.70;71.20;;;;;;5122666;28;20023;-36
2021/10/05 03:04:32;;;;;;;1.42;0.80;;;22.70;71.20;;;;;;5123674;28;20500;-36
2021/10/05 03:06:58;;;;;;;0.70;0.70;;;22.70;71.20;;;;;;5126364;28;20023;-36
2021/10/05 03:09:25;;;;;;;0.63;0.60;;;22.70;71.20;;;;;;5126321;28;20035;-36
2021/10/05 03:11:51;;;;;;;0.60;0.60;;;22.70;71.20;;;;;;5126357;28;20079;-36
2021/10/05 03:14:17;;;;;;;0.60;0.60;;;22.70;71.20;;;;;;5126645;28;20054;-36
2021/10/05 03:16:43;;;;;;;0.63;0.63;;;22.70;71.20;;;;;;5126198;28;20049;-36
2021/10/05 03:19:09;;;;;;;0.73;0.73;;;22.70;71.30;;;;;;5126286;28;20027;-36
2021/10/05 03:21:36;;;;;;;1.20;0.55;;;22.70;71.30;;;;;;5135757;27;20084;-36
2021/10/05 03:24:02;;;;;;;1.43;0.50;;;22.70;71.30;;;;;;5146913;27;20052;-36
2021/10/05 03:26:28;;;;;;;0.90;0.70;;;22.70;71.30;;;;;;5146852;27;20031;-36
2021/10/05 03:28:54;;;;;;;1.75;0.80;;;22.70;71.30;;;;;;5146783;27;20039;-36
2021/10/05 03:31:21;;;;;;;0.73;0.73;;;22.70;71.40;;;;;;5146439;27;20023;-36
2021/10/05 03:33:47;;;;;;;0.60;0.57;;;22.70;71.30;;;;;;5146653;27;20077;-36
2021/10/05 03:36:14;;;;;;;0.60;0.60;;;22.70;71.30;;;;;;5139869;27;20039;-36
2021/10/05 03:38:40;;;;;;;1.33;0.70;;;22.70;71.30;;;;;;5126039;28;20028;-36
2021/10/05 03:41:06;;;;;;;0.90;0.63;;;22.70;71.20;;;;;;5125713;28;20027;-36
2021/10/05 03:43:33;;;;;;;1.10;0.73;;;22.70;71.30;;;;;;5107622;28;20477;-36
2021/10/05 03:45:59;;;;;;;0.57;0.57;;;22.70;71.20;;;;;;5126020;28;20028;-36
2021/10/05 03:48:26;;;;;;;1.85;0.80;;;22.70;71.20;;;;;;5125569;28;20047;-36
2021/10/05 03:50:52;;;;;;;0.80;0.70;;;22.70;71.30;;;;;;5138692;27;20430;-36
2021/10/05 03:53:19;;;;;;;0.60;0.60;;;22.70;71.30;;;;;;5125513;28;20024;-36
2021/10/05 03:55:55;;;;;;;1.15;0.70;;;22.60;71.30;;;;;;5125530;28;20057;-36
2021/10/05 03:58:22;;;;;;;0.60;0.60;;;22.60;71.30;;;;;;5125500;28;20024;-36
2021/10/05 04:00:49;;;;;;;0.75;0.75;;;22.60;71.30;;;;;;5125332;28;20106;-36
2021/10/05 04:03:15;;;;;;;2.00;0.70;;;22.60;71.30;;;;;;5125519;28;20131;-37
2021/10/05 04:05:41;;;;;;;0.75;0.73;;;22.60;71.40;;;;;;5125682;28;20038;-36
2021/10/05 04:08:09;;;;;;;1.07;0.80;;;22.60;71.40;;;;;;5125353;28;20043;-37
2021/10/05 04:10:36;;;;;;;0.95;0.80;;;22.60;71.40;;;;;;5125214;28;20499;-37
2021/10/05 04:13:02;;;;;;;0.90;0.90;;;22.60;71.30;;;;;;5125419;28;20035;-37
2021/10/05 04:15:28;;;;;;;2.60;0.70;;;22.60;71.40;;;;;;5124879;28;20036;-37
2021/10/05 04:17:54;;;;;;;1.88;0.70;;;22.60;71.40;;;;;;5124799;28;20020;-37
2021/10/05 04:20:21;;;;;;;0.80;0.80;;;22.60;71.30;;;;;;5137261;27;20031;-37
2021/10/05 04:22:47;;;;;;;0.95;0.90;;;22.60;71.50;;;;;;5125659;27;20027;-37
2021/10/05 04:25:13;;;;;;;0.70;0.70;;;22.60;71.50;;;;;;5125173;28;20403;-37
2021/10/05 04:27:39;;;;;;;1.08;0.70;;;22.60;71.50;;;;;;5124956;28;20034;-37
2021/10/05 04:30:08;;;;;;;0.87;0.87;;;22.60;71.50;;;;;;5125144;28;20031;-37
2021/10/05 04:32:34;;;;;;;1.77;0.60;;;22.60;71.40;;;;;;5096226;28;20032;-37
2021/10/05 04:35:00;;;;;;;1.00;0.88;;;22.60;71.50;;;;;;5105418;28;20028;-37
2021/10/05 04:37:26;;;;;;;0.98;0.70;;;22.60;71.50;;;;;;5121343;28;20034;-37
2021/10/05 04:39:52;;;;;;;1.48;0.90;;;22.60;71.60;;;;;;5130585;27;20023;-37
2021/10/05 04:42:18;;;;;;;1.25;0.70;;;22.60;71.50;;;;;;5145305;27;20027;-36
2021/10/05 04:44:44;;;;;;;0.90;0.90;;;22.60;71.60;;;;;;5145341;27;20019;-36
2021/10/05 04:47:11;;;;;;;0.70;0.70;;;22.60;71.60;;;;;;5145084;27;20142;-36
2021/10/05 04:49:37;;;;;;;1.00;0.93;;;22.60;71.60;;;;;;5145225;27;20763;-36
2021/10/05 04:52:03;;;;;;;1.90;0.80;;;22.60;71.60;;;;;;5131019;27;20030;-37
2021/10/05 04:54:30;;;;;;;1.13;1.07;;;22.60;71.70;;;;;;5124242;28;20055;-36
2021/10/05 04:56:56;;;;;;;0.70;0.70;;;22.60;71.60;;;;;;5124322;28;20375;-37
2021/10/05 04:59:22;;;;;;;0.68;0.68;;;22.50;71.50;;;;;;5124365;28;20023;-36
2021/10/05 05:01:48;;;;;;;0.70;0.70;;;22.50;71.60;;;;;;5124154;28;20035;-37
2021/10/05 05:04:17;;;;;;;0.93;0.90;;;22.50;71.50;;;;;;5124448;28;20028;-36
2021/10/05 05:06:44;;;;;;;1.13;0.80;;;22.50;71.60;;;;;;5124080;28;20031;-36
2021/10/05 05:09:10;;;;;;;1.05;1.00;;;22.50;71.60;;;;;;5124024;28;20036;-36
2021/10/05 05:11:36;;;;;;;1.05;1.00;;;22.50;71.60;;;;;;5123757;28;20788;-37
2021/10/05 05:14:08;;;;;;;0.90;0.90;;;22.50;71.60;;;;;;5123901;28;20027;-37
2021/10/05 05:16:37;;;;;;;0.75;0.73;;;22.50;71.60;;;;;;5123941;28;20074;-36
2021/10/05 05:19:04;;;;;;;0.98;0.90;;;22.50;71.60;;;;;;5124045;28;20062;-36
2021/10/05 05:21:30;;;;;;;1.10;1.00;;;22.50;71.60;;;;;;5132638;27;20094;-36
2021/10/05 05:23:57;;;;;;;2.15;0.85;;;22.50;71.60;;;;;;5144313;27;20031;-36
2021/10/05 05:26:23;;;;;;;1.20;1.07;;;22.50;71.60;;;;;;5128423;27;20126;-36
2021/10/05 05:28:49;;;;;;;0.70;0.70;;;22.50;71.60;;;;;;5123482;28;20292;-37
2021/10/05 05:31:16;;;;;;;1.25;0.75;;;22.50;71.70;;;;;;5123628;28;20123;-37
2021/10/05 05:33:42;;;;;;;0.90;0.90;;;22.50;71.70;;;;;;5123683;28;20032;-37
2021/10/05 05:36:08;;;;;;;0.95;0.80;;;22.50;72.50;;;;;;5123747;28;20065;-37
2021/10/05 05:38:34;;;;;;;1.15;0.80;;;22.50;71.80;;;;;;5123406;28;20770;-37
2021/10/05 05:41:00;;;;;;;0.98;0.88;;;22.50;71.80;;;;;;5139380;27;20037;-36
2021/10/05 05:43:26;;;;;;;1.65;0.90;;;22.50;71.80;;;;;;5144051;27;20027;-37
2021/10/05 05:45:52;;;;;;;0.80;0.80;;;22.50;71.80;;;;;;5144197;27;20027;-37
2021/10/05 05:48:19;;;;;;;1.08;0.90;;;22.50;71.80;;;;;;5125368;27;20062;-36
2021/10/05 05:50:45;;;;;;;2.00;1.00;;;22.50;71.80;;;;;;5141446;27;20173;-36
2021/10/05 05:53:11;;;;;;;1.15;1.05;;;22.50;71.80;;;;;;5122821;28;20049;-36
2021/10/05 05:55:37;;;;;;;1.40;1.13;;;22.50;71.80;;;;;;5123389;28;20127;-36
2021/10/05 05:58:11;;;;;;;1.55;1.10;;;22.50;71.80;;;;;;5123029;28;20036;-36
2021/10/05 06:00:37;;;;;;;1.42;0.90;;;22.50;71.80;;;;;;5119347;28;20056;-36
2021/10/05 06:03:03;;;;;;;1.20;1.00;;;22.50;71.90;;;;;;5102598;28;20028;-36
2021/10/05 06:05:30;;;;;;;0.98;0.98;;;22.40;71.70;;;;;;5102836;28;20028;-36
2021/10/05 06:07:56;;;;;;;1.37;1.00;;;22.40;71.90;;;;;;5102548;28;20039;-36
2021/10/05 06:10:22;;;;;;;1.88;1.08;;;22.40;71.80;;;;;;5102743;28;20028;-36
2021/10/05 06:12:48;;;;;;;0.93;0.88;;;22.40;72.60;;;;;;5102483;28;20028;-36
2021/10/05 06:15:16;;;;;;;1.10;1.00;;;22.40;71.80;;;;;;5102855;28;20021;-36
2021/10/05 06:17:43;;;;;;;1.02;0.93;;;22.40;71.90;;;;;;5102571;28;20054;-36
2021/10/05 06:20:11;;;;;;;0.93;0.90;;;22.40;71.90;;;;;;5102480;28;20127;-36
2021/10/05 06:22:38;;;;;;;1.45;1.00;;;22.40;71.90;;;;;;5139337;28;20033;-36
2021/10/05 06:25:09;;;;;;;0.90;0.90;;;22.40;71.90;;;;;;5125115;28;20038;-36
2021/10/05 06:27:35;;;;;;;0.88;0.88;;;22.40;71.80;;;;;;5143320;28;20038;-36
2021/10/05 06:30:01;;;;;;;0.90;0.90;;;22.40;71.90;;;;;;5143484;28;20027;-36
2021/10/05 06:32:27;;;;;;;1.13;1.00;;;22.40;71.80;;;;;;5143179;28;20019;-36
2021/10/05 06:34:53;;;;;;;1.17;0.98;;;22.40;71.90;;;;;;5143599;28;20031;-36
2021/10/05 06:37:20;;;;;;;2.17;1.10;;;22.40;71.90;;;;;;5127210;28;20088;-36
2021/10/05 06:39:46;;;;;;;0.80;0.80;;;22.40;71.90;;;;;;5106576;27;20035;-36
2021/10/05 06:42:12;;;;;;;1.30;1.00;;;22.40;71.90;;;;;;5131363;27;20028;-36
2021/10/05 06:44:38;;;;;;;1.27;1.07;;;22.40;71.90;;;;;;5106374;28;20039;-36
2021/10/05 06:47:04;;;;;;;0.70;0.70;;;22.40;71.90;;;;;;5106451;28;20079;-36
2021/10/05 06:49:30;;;;;;;2.67;0.90;;;22.40;72.00;;;;;;5106343;28;20036;-36
2021/10/05 06:51:57;;;;;;;1.65;1.00;;;22.40;72.00;;;;;;5131571;27;20066;-36
2021/10/05 06:54:23;;;;;;;1.42;1.10;;;22.40;71.90;;;;;;5146732;27;20055;-36
2021/10/05 06:56:50;;;;;;;1.10;1.00;;;22.40;72.00;;;;;;5128870;27;20027;-36
2021/10/05 06:59:16;;;;;;;1.20;1.00;;;22.40;71.90;;;;;;5147439;27;20030;-36
2021/10/05 07:01:42;;;;;;;1.98;1.13;;;22.40;72.00;;;;;;5147311;27;20031;-36
2021/10/05 07:04:10;;;;;;;1.15;0.98;;;22.40;72.00;;;;;;5146957;27;20051;-36
2021/10/05 07:06:37;;;;;;;2.17;1.15;;;22.40;72.00;;;;;;5147030;27;20030;-36
2021/10/05 07:09:06;;;;;;;;;;;22.40;72.00;;;;;;5147423;27;20038;-37
2021/10/05 07:11:33;;;;;;;2.17;1.00;;;22.40;72.00;;;;;;5147050;27;19904;-37
2021/10/05 07:13:59;;;;;;;2.28;1.00;;;22.40;72.00;;;;;;5146792;27;20057;-36
2021/10/05 07:16:25;;;;;;;1.30;1.20;;;22.40;72.00;;;;;;5146983;27;20057;-36
2021/10/05 07:18:51;;;;;;;4.15;1.35;;;22.30;72.00;;;;;;5146931;27;20117;-36
2021/10/05 07:21:18;;;;;;;1.48;1.10;;;22.30;72.00;;;;;;5139365;27;20031;-36
2021/10/05 07:23:44;;;;;;;1.30;1.20;;;22.30;72.00;;;;;;5125466;28;20046;-37
2021/10/05 07:26:10;;;;;;;0.90;0.90;;;22.30;72.00;;;;;;5125922;28;20098;-36
2021/10/05 07:28:36;;;;;;;2.60;1.20;;;22.30;72.00;;;;;;5125742;28;20567;-36
2021/10/05 07:31:02;;;;;;;1.23;1.10;;;22.30;72.00;;;;;;5126176;28;20032;-36
2021/10/05 07:33:29;;;;;;;1.20;1.10;;;22.30;72.10;;;;;;5125861;28;20035;-36
2021/10/05 07:35:55;;;;;;;0.85;0.85;;;22.30;72.20;;;;;;5125940;28;20026;-37
2021/10/05 07:38:21;;;;;;;1.60;0.95;;;22.30;72.10;;;;;;5126016;28;20130;-36
2021/10/05 07:40:48;;;;;;;1.83;1.10;;;22.30;72.00;;;;;;5125905;28;20083;-36
2021/10/05 07:43:14;;;;;;;1.40;0.90;;;22.30;72.10;;;;;;5125482;28;20080;-36
2021/10/05 07:45:40;;;;;;;1.27;1.17;;;22.30;72.10;;;;;;5125907;28;20024;-36
2021/10/05 07:48:06;;;;;;;1.80;1.00;;;22.30;72.10;;;;;;5125599;28;20019;-37
2021/10/05 07:50:33;;;;;;;1.23;1.13;;;22.30;72.10;;;;;;5125965;28;20020;-37
2021/10/05 07:52:59;;;;;;;1.15;1.10;;;22.30;72.20;;;;;;5145588;27;20031;-37
2021/10/05 07:55:26;;;;;;;1.07;0.97;;;22.30;72.10;;;;;;5145802;27;20476;-37
2021/10/05 07:57:53;;;;;;;1.25;1.15;;;22.30;72.20;;;;;;5146137;27;20271;-37
2021/10/05 08:00:19;;;;;;;1.20;1.10;;;22.30;72.10;;;;;;5146191;27;20027;-37
2021/10/05 08:02:45;;;;;;;1.02;0.93;;;22.30;72.20;;;;;;5146201;27;20031;-36
2021/10/05 08:05:15;;;;;;;1.63;1.00;;;22.30;72.20;;;;;;5145818;27;20027;-36
2021/10/05 08:07:42;;;;;;;1.83;1.02;;;22.30;72.20;;;;;;5145722;27;20760;-37
2021/10/05 08:10:08;;;;;;;1.10;1.00;;;22.30;72.20;;;;;;5146001;27;20035;-37
2021/10/05 08:12:35;;;;;;;1.13;1.02;;;22.30;72.40;;;;;;5145850;27;20027;-37
2021/10/05 08:15:01;;;;;;;1.45;1.00;;;22.30;72.20;;;;;;5145893;27;20023;-37
2021/10/05 08:17:27;;;;;;;1.75;1.42;;;22.30;72.30;;;;;;5145992;27;20023;-37
2021/10/05 08:19:54;;;;;;;1.20;1.10;;;22.30;72.30;;;;;;5145738;27;20031;-37
2021/10/05 08:22:20;;;;;;;1.05;1.00;;;22.30;72.30;;;;;;5129401;27;20019;-37
2021/10/05 08:24:46;;;;;;;1.53;1.20;;;22.30;72.30;;;;;;5124967;28;20103;-36
2021/10/05 08:27:12;;;;;;;1.08;1.00;;;22.30;72.40;;;;;;5124982;28;20106;-37
2021/10/05 08:29:40;;;;;;;1.23;1.00;;;22.30;72.30;;;;;;5124971;28;20043;-37
2021/10/05 08:32:07;;;;;;;1.30;1.20;;;22.30;72.30;;;;;;5124978;28;20035;-36
2021/10/05 08:34:33;;;;;;;;;;;22.30;72.40;;;;;;5125124;28;20087;-37
2021/10/05 08:36:59;;;;;;;1.20;1.08;;;22.20;72.30;;;;;;5124790;28;19908;-37
2021/10/05 08:39:25;;;;;;;1.27;1.17;;;22.20;72.30;;;;;;5125013;28;20032;-37
2021/10/05 08:41:51;;;;;;;1.30;1.13;;;22.30;72.40;;;;;;5119014;28;20043;-37
2021/10/05 08:44:18;;;;;;;1.83;1.25;;;22.20;72.30;;;;;;5124521;28;20047;-37
2021/10/05 08:46:44;;;;;;;1.42;1.10;;;22.30;72.50;;;;;;5124581;28;20047;-37
2021/10/05 08:49:10;;;;;;;1.77;1.10;;;22.20;72.40;;;;;;5124552;28;20027;-37
2021/10/05 08:51:37;;;;;;;2.55;1.05;;;22.30;72.40;;;;;;5134535;27;20263;-37
2021/10/05 08:54:04;;;;;;;1.27;1.10;;;22.20;72.40;;;;;;5144596;27;20051;-37
2021/10/05 08:56:30;;;;;;;;;;;22.20;72.50;;;;;;5145481;27;20019;-37
2021/10/05 08:58:56;;;;;;;1.38;1.00;;;22.20;72.30;;;;;;5145011;27;20013;-37
2021/10/05 09:01:22;;;;;;;1.77;1.10;;;22.20;72.40;;;;;;5144992;27;20024;-37
2021/10/05 09:03:49;;;;;;;2.67;1.20;;;22.20;72.50;;;;;;5144525;27;20050;-37
2021/10/05 09:06:15;;;;;;;1.60;1.15;;;22.20;72.40;;;;;;5144744;27;20046;-37
2021/10/05 09:08:42;;;;;;;1.60;0.90;;;22.20;72.40;;;;;;5144459;27;20126;-36
2021/10/05 09:11:09;;;;;;;1.17;1.00;;;22.20;72.50;;;;;;5144650;27;20266;-36
2021/10/05 09:13:39;;;;;;;1.70;1.30;;;22.20;72.50;;;;;;5144641;27;20039;-37
2021/10/05 09:16:25;;;;;;;1.48;1.38;;;22.20;72.50;;;;;;5144478;27;20030;-37
2021/10/05 09:19:01;;;;;;;2.13;1.30;;;22.20;72.50;;;;;;5144621;27;20625;-36
2021/10/05 09:21:32;;;;;;;1.75;1.30;;;22.20;72.60;;;;;;5135827;27;20023;-36
2021/10/05 09:24:01;;;;;;;2.13;1.10;;;22.20;73.40;;;;;;5123704;28;20031;-36
2021/10/05 09:26:49;;;;;;;2.17;1.15;;;22.20;72.50;;;;;;5123373;28;20114;-37
2021/10/05 09:29:18;;;;;;;;;;;22.20;72.60;;;;;;5103835;28;20044;-37
2021/10/05 09:31:46;;;;;;;;;;;22.20;72.60;;;;;;5103978;28;20292;-37
2021/10/05 09:34:12;;;;;;;1.27;1.17;;;22.20;72.50;;;;;;5103329;28;19908;-37
2021/10/05 09:36:38;;;;;;;1.10;1.00;;;22.20;72.50;;;;;;5113295;28;20498;-37
2021/10/05 09:39:05;;;;;;;1.50;0.90;;;22.20;72.60;;;;;;5123543;28;20135;-37
2021/10/05 09:41:31;;;;;;;1.50;1.15;;;22.20;72.60;;;;;;5123609;28;20070;-37
2021/10/05 09:44:03;;;;;;;0.98;0.95;;;22.20;72.60;;;;;;5123748;28;20026;-37
2021/10/05 09:46:30;;;;;;;1.33;1.23;;;22.20;72.60;;;;;;5123437;28;20106;-37
2021/10/05 09:49:01;;;;;;;1.30;1.10;;;22.20;72.70;;;;;;5105271;28;20042;-37
2021/10/05 09:51:27;;;;;;;2.22;1.10;;;22.20;72.70;;;;;;5123326;28;20677;-37
2021/10/05 09:53:57;;;;;;;1.55;1.30;;;22.20;72.70;;;;;;5123169;28;20043;-36
2021/10/05 09:56:24;;;;;;;1.58;1.08;;;22.20;72.80;;;;;;5123188;28;20028;-36
2021/10/05 09:58:53;;;;;;;1.20;1.10;;;22.20;72.70;;;;;;5123340;28;20082;-37
2021/10/05 10:01:20;;;;;;;1.10;1.00;;;22.20;72.80;;;;;;5123378;28;20049;-36
2021/10/05 10:03:50;;;;;;;1.10;0.90;;;22.20;72.80;;;;;;5123522;28;20023;-37
2021/10/05 10:06:16;;;;;;;1.42;1.20;;;22.20;72.80;;;;;;5123055;28;20032;-37
2021/10/05 10:08:45;;;;;;;1.42;1.00;;;22.20;72.80;;;;;;5123083;28;20128;-36
2021/10/05 10:11:11;;;;;;;1.17;1.08;;;22.20;72.80;;;;;;5123230;28;20125;-37
2021/10/05 10:13:37;;;;;;;2.65;1.15;;;22.20;72.80;;;;;;5122706;28;20031;-37
2021/10/05 10:16:03;;;;;;;1.10;1.00;;;22.20;72.80;;;;;;5104394;28;20024;-37
2021/10/05 10:18:30;;;;;;;1.15;1.00;;;22.20;72.80;;;;;;5104922;28;20031;-36
2021/10/05 10:21:07;;;;;;;1.45;1.23;;;22.20;72.90;;;;;;5127388;28;20026;-37
2021/10/05 10:23:33;;;;;;;1.73;1.07;;;22.20;72.90;;;;;;5143669;28;20052;-37
2021/10/05 10:26:03;;;;;;;1.23;1.10;;;22.20;73.00;;;;;;5143524;28;20267;-37
2021/10/05 10:28:30;;;;;;;1.02;0.93;;;22.20;72.90;;;;;;5143647;28;20031;-37
2021/10/05 10:30:57;;;;;;;;;;;22.20;73.00;;;;;;5144224;28;20080;-37
2021/10/05 10:33:24;;;;;;;1.75;1.08;;;22.20;73.00;;;;;;5143653;28;19907;-37
2021/10/05 10:35:56;;;;;;;2.70;1.05;;;22.20;73.00;;;;;;5139936;28;20024;-37
2021/10/05 10:38:27;;;;;;;1.52;1.00;;;22.20;73.00;;;;;;5120237;28;20460;-37
2021/10/05 10:40:53;;;;;;;1.20;1.10;;;22.20;73.00;;;;;;5128924;28;20024;-37
2021/10/05 10:43:21;;;;;;;1.55;1.00;;;22.20;73.00;;;;;;5121622;28;20024;-37
2021/10/05 10:45:55;;;;;;;1.98;1.15;;;22.20;73.00;;;;;;5122601;28;20111;-37
2021/10/05 10:48:35;;;;;;;1.92;1.35;;;22.20;73.00;;;;;;5122698;28;20575;-37
2021/10/05 10:51:20;;;;;;;1.17;1.08;;;22.20;73.00;;;;;;5122700;28;20028;-37
2021/10/05 10:53:47;;;;;;;1.15;1.02;;;22.20;73.00;;;;;;5123004;28;20089;-37
2021/10/05 10:56:15;;;;;;;1.55;1.30;;;22.20;73.10;;;;;;5122350;28;20035;-37
2021/10/05 10:58:45;;;;;;;1.25;1.15;;;22.20;73.10;;;;;;5122720;28;20077;-36
2021/10/05 11:01:14;;;;;;;1.70;1.20;;;22.10;73.00;;;;;;5122664;28;20024;-37
2021/10/05 11:03:41;;;;;;;1.20;1.10;;;22.10;73.10;;;;;;5122916;28;20027;-37
2021/10/05 11:06:17;;;;;;;1.20;1.10;;;22.10;73.20;;;;;;5104323;28;20031;-37
2021/10/05 11:08:56;;;;;;;1.42;1.23;;;22.20;73.20;;;;;;5122558;28;20061;-37
2021/10/05 11:11:41;;;;;;;1.98;1.00;;;22.10;73.20;;;;;;5137330;28;20031;-37
2021/10/05 11:14:10;;;;;;;2.20;1.05;;;22.10;73.20;;;;;;5122328;28;20544;-37
2021/10/05 11:16:38;;;;;;;1.80;1.00;;;22.10;73.20;;;;;;5122734;28;20031;-36
2021/10/05 11:19:12;;;;;;;1.52;1.20;;;22.10;73.30;;;;;;5104209;28;20486;-37
2021/10/05 11:21:42;;;;;;;1.42;1.15;;;22.10;73.30;;;;;;5122590;28;20056;-37
2021/10/05 11:24:10;;;;;;;1.17;1.08;;;22.10;73.30;;;;;;5122144;28;20051;-37
2021/10/05 11:26:38;;;;;;;2.03;1.20;;;22.10;73.30;;;;;;5125377;28;20038;-37
2021/10/05 11:29:05;;;;;;;2.22;1.30;;;22.10;73.30;;;;;;5126197;28;20774;-37
2021/10/05 11:31:48;;;;;;;1.60;1.10;;;22.10;73.20;;;;;;5126353;28;20023;-37
2021/10/05 11:34:15;;;;;;;1.30;0.98;;;22.10;73.30;;;;;;5125298;28;20036;-37
2021/10/05 11:36:41;;;;;;;2.03;1.10;;;22.10;73.30;;;;;;5126179;28;20035;-37
2021/10/05 11:39:08;;;;;;;1.17;0.90;;;22.10;73.30;;;;;;5126086;28;20035;-37
2021/10/05 11:41:38;;;;;;;1.20;1.10;;;22.10;73.40;;;;;;5125551;28;20084;-37
2021/10/05 11:44:17;;;;;;;1.17;0.90;;;22.10;73.30;;;;;;5125738;28;20032;-37
2021/10/05 11:46:56;;;;;;;1.55;1.15;;;22.10;73.40;;;;;;5125870;28;20196;-37
2021/10/05 11:49:23;;;;;;;1.50;1.27;;;22.10;73.30;;;;;;5125778;28;20058;-37
2021/10/05 11:51:52;;;;;;;0.88;0.88;;;22.10;73.40;;;;;;5125828;28;20045;-37
2021/10/05 11:54:25;;;;;;;1.83;0.98;;;22.10;73.40;;;;;;5125390;28;20048;-37
2021/10/05 11:56:52;;;;;;;1.17;0.90;;;22.10;73.40;;;;;;5125809;28;20107;-37
2021/10/05 11:59:44;;;;;;;1.10;1.00;;;22.10;73.40;;;;;;5125651;28;20727;-37
2021/10/05 12:02:11;;;;;;;1.42;0.95;;;22.10;73.50;;;;;;5121148;28;20028;-37
2021/10/05 12:04:39;;;;;;;1.20;0.93;;;22.10;73.40;;;;;;5107006;28;20036;-37
2021/10/05 12:07:09;;;;;;;1.10;1.00;;;22.10;73.40;;;;;;5125559;28;20106;-37
2021/10/05 12:09:36;;;;;;;1.80;1.30;;;22.10;74.20;;;;;;5125964;28;20047;-37
2021/10/05 12:12:05;;;;;;;2.15;0.98;;;22.10;73.40;;;;;;5121371;28;20019;-37
2021/10/05 12:14:38;;;;;;;1.20;1.10;;;22.10;73.50;;;;;;5125302;28;20034;-37
2021/10/05 12:17:11;;;;;;;1.98;1.15;;;22.10;73.50;;;;;;5125348;28;20039;-37
2021/10/05 12:19:38;;;;;;;0.90;0.80;;;22.10;73.50;;;;;;5107485;28;20016;-37
2021/10/05 12:22:07;;;;;;;1.17;0.73;;;22.10;73.50;;;;;;5125400;28;20031;-37
2021/10/05 12:24:42;;;;;;;2.65;0.90;;;22.10;73.50;;;;;;5124973;28;20035;-37
2021/10/05 12:27:09;;;;;;;1.15;0.80;;;22.10;73.50;;;;;;5125171;28;20027;-37
2021/10/05 12:29:55;;;;;;;0.85;0.80;;;22.10;73.60;;;;;;5125157;28;20503;-37
2021/10/05 12:32:51;;;;;;;1.60;1.20;;;22.10;73.60;;;;;;5125179;28;20027;-37
2021/10/05 12:35:30;;;;;;;1.27;0.90;;;22.10;73.70;;;;;;5106784;28;20020;-37
2021/10/05 12:38:03;;;;;;;0.95;0.80;;;22.10;73.70;;;;;;5107922;28;20020;-37
2021/10/05 12:40:51;;;;;;;1.20;1.10;;;22.10;73.70;;;;;;5124226;28;20023;-37
2021/10/05 12:43:18;;;;;;;;;;;22.00;73.60;;;;;;5121937;28;20019;-37
2021/10/05 12:45:54;;;;;;;1.38;0.90;;;22.10;73.80;;;;;;5124655;28;19971;-37
2021/10/05 12:48:34;;;;;;;0.98;0.88;;;22.00;73.60;;;;;;5124623;28;20063;-37
2021/10/05 12:51:04;;;;;;;1.25;1.00;;;22.00;73.60;;;;;;5124675;28;20019;-36